Time;durP1;ratioP1;P1;durP2;ratioP2;P2;SDS_P1;SDS_P2;PMS_P1;PMS_P2;Temp;Humidity;BMP_temperature;BMP_pressure;BME280_temperature;BME280_humidity;BME280_pressure;Samples;Min_cycle;Max_cycle;Signal;HPM_P1;HPM_P2
2022/09/25 00:03:09;;;;;;;9.60;3.33;;;;;;;9.48;100.00;101676.09;10594501;28;20035;-72
2022/09/25 00:08:09;;;;;;;2.22;2.05;;;;;;;9.38;100.00;101679.00;10572598;28;20061;-72
2022/09/25 00:13:10;;;;;;;3.33;2.65;;;;;;;9.33;100.00;101681.34;10567289;28;20039;-72
2022/09/25 00:18:10;;;;;;;5.28;2.38;;;;;;;9.38;100.00;101683.53;10584791;28;20031;-72
2022/09/25 00:23:10;;;;;;;3.15;2.83;;;;;;;9.31;100.00;101683.38;10583774;28;20065;-72
2022/09/25 00:28:11;;;;;;;1.98;1.83;;;;;;;9.28;100.00;101675.59;10585030;28;20044;-72
2022/09/25 00:33:11;;;;;;;2.38;2.17;;;;;;;9.22;100.00;101678.97;10584756;28;20047;-72
2022/09/25 00:38:11;;;;;;;11.85;3.20;;;;;;;9.24;100.00;101680.50;10584378;28;20116;-72
2022/09/25 00:43:32;;;;;;;5.90;2.50;;;;;;;9.14;100.00;101671.72;10584064;28;20031;-72
2022/09/25 00:48:32;;;;;;;3.25;2.47;;;;;;;9.13;100.00;101680.84;10568632;28;20066;-72
2022/09/25 00:53:35;;;;;;;4.10;2.90;;;;;;;9.17;100.00;101674.09;10582959;28;20024;-72
2022/09/25 00:58:36;;;;;;;3.38;2.67;;;;;;;9.15;100.00;101677.97;10584117;28;20581;-72
2022/09/25 01:03:36;;;;;;;5.97;2.85;;;;;;;9.22;100.00;101685.25;10566235;28;20031;-72
2022/09/25 01:08:36;;;;;;;2.83;2.50;;;;;;;9.31;100.00;101680.66;10549571;28;20028;-72
2022/09/25 01:13:37;;;;;;;6.85;3.63;;;;;;;9.33;100.00;101675.94;10582970;28;20374;-71
2022/09/25 01:18:56;;;;;;;3.42;3.13;;;;;;;9.25;100.00;101678.63;10547890;28;20092;-72
2022/09/25 01:24:09;;;;;;;5.53;3.90;;;;;;;9.07;100.00;101682.38;10583420;28;20039;-72
2022/09/25 01:29:11;;;;;;;11.63;2.75;;;;;;;9.01;100.00;101684.91;10549823;28;20034;-72
2022/09/25 01:34:19;;;;;;;8.38;3.17;;;;;;;8.87;100.00;101675.63;10548665;28;20558;-72
2022/09/25 01:39:31;;;;;;;4.75;2.65;;;;;;;8.84;100.00;101676.78;10556636;28;20044;-72
2022/09/25 01:44:33;;;;;;;2.90;2.60;;;;;;;8.93;100.00;101684.88;10539379;28;20039;-72
2022/09/25 01:49:54;;;;;;;6.47;2.67;;;;;;;9.06;100.00;101679.81;10571898;28;20058;-72
2022/09/25 01:54:59;;;;;;;2.40;2.17;;;;;;;9.17;100.00;101676.81;10590085;28;20055;-72
2022/09/25 02:00:08;;;;;;;2.58;2.15;;;;;;;9.34;100.00;101687.59;10556746;28;20175;-72
2022/09/25 02:05:13;;;;;;;8.40;2.60;;;;;;;9.50;100.00;101685.72;10574757;28;20507;-72
2022/09/25 02:10:15;;;;;;;5.05;2.67;;;;;;;9.75;100.00;101685.66;10590923;28;20081;-73
2022/09/25 02:15:23;;;;;;;10.85;3.55;;;;;;;9.97;100.00;101667.84;10571947;28;20470;-72
2022/09/25 02:20:32;;;;;;;7.20;2.75;;;;;;;10.12;100.00;101668.81;10556533;28;20477;-73
2022/09/25 02:25:39;;;;;;;4.78;2.50;;;;;;;10.26;100.00;101678.09;10573857;28;20028;-72
2022/09/25 02:30:39;;;;;;;3.20;2.78;;;;;;;10.32;100.00;101676.53;10554365;28;20027;-73
2022/09/25 02:35:40;;;;;;;3.53;2.78;;;;;;;10.28;100.00;101689.59;10589416;28;20436;-73
2022/09/25 02:40:46;;;;;;;6.18;3.35;;;;;;;10.28;100.00;101681.47;10554829;28;20049;-72
2022/09/25 02:46:14;;;;;;;4.10;2.25;;;;;;;10.22;100.00;101680.28;10571894;28;20032;-72
2022/09/25 02:51:31;;;;;;;5.22;2.85;;;;;;;10.28;100.00;101672.50;10592374;28;20035;-73
2022/09/25 02:56:52;;;;;;;9.73;4.10;;;;;;;10.41;100.00;101673.63;10555241;28;20078;-73
2022/09/25 03:01:53;;;;;;;2.70;2.47;;;;;;;10.53;100.00;101678.59;10573732;28;20271;-73
2022/09/25 03:06:53;;;;;;;9.52;3.45;;;;;;;10.64;100.00;101691.75;10569470;28;20034;-72
2022/09/25 03:11:54;;;;;;;3.08;2.40;;;;;;;10.74;100.00;101695.06;10569250;28;20458;-73
2022/09/25 03:16:55;;;;;;;5.63;3.55;;;;;;;10.86;100.00;101698.22;10587562;28;20435;-72
2022/09/25 03:21:55;;;;;;;11.60;2.80;;;;;;;10.97;100.00;101696.97;10551804;28;20035;-73
2022/09/25 03:26:56;;;;;;;8.70;3.42;;;;;;;11.08;100.00;101704.69;10587126;28;20039;-70
2022/09/25 03:31:56;;;;;;;9.63;3.05;;;;;;;11.13;100.00;101696.81;10585225;28;20543;-70
2022/09/25 03:36:56;;;;;;;2.17;1.67;;;;;;;11.13;100.00;101691.41;10567284;28;20165;-69
2022/09/25 03:41:57;;;;;;;15.13;3.53;;;;;;;11.08;100.00;101677.56;10568925;28;20041;-70
2022/09/25 03:46:57;;;;;;;5.10;2.30;;;;;;;10.88;100.00;101671.78;10586689;28;20524;-70
2022/09/25 03:51:58;;;;;;;2.20;2.10;;;;;;;10.65;100.00;101669.06;10586414;28;20039;-70
2022/09/25 03:56:59;;;;;;;9.52;1.85;;;;;;;10.54;100.00;101666.78;10565939;27;20035;-70
2022/09/25 04:02:01;;;;;;;3.97;2.10;;;;;;;10.57;100.00;101661.00;10585635;28;20463;-71
2022/09/25 04:07:01;;;;;;;5.70;2.67;;;;;;;10.60;100.00;101652.53;10568052;28;20038;-71
2022/09/25 04:12:04;;;;;;;5.70;3.70;;;;;;;10.59;100.00;101648.09;10566453;28;20126;-70
2022/09/25 04:17:04;;;;;;;6.55;1.90;;;;;;;10.50;100.00;101649.19;10585051;28;20035;-70
2022/09/25 04:22:05;;;;;;;1.98;1.83;;;;;;;10.38;100.00;101649.59;10584793;28;20044;-71
2022/09/25 04:27:05;;;;;;;7.05;2.90;;;;;;;10.17;100.00;101646.63;10584508;28;20068;-70
2022/09/25 04:37:28;;;;;;;4.63;1.38;;;;;;;9.63;100.00;101638.38;10583372;28;20060;-71
2022/09/25 04:42:28;;;;;;;5.80;2.10;;;;;;;9.49;100.00;101645.34;10550738;28;20035;-70
2022/09/25 04:47:31;;;;;;;2.72;2.33;;;;;;;9.48;100.00;101655.31;10564563;28;20036;-71
2022/09/25 04:52:31;;;;;;;9.70;3.05;;;;;;;9.49;100.00;101643.47;10584063;28;20122;-71
2022/09/25 04:57:32;;;;;;;6.38;1.98;;;;;;;9.62;100.00;101648.34;10583191;28;20031;-71
2022/09/25 05:02:33;;;;;;;3.75;1.83;;;;;;;9.80;100.00;101648.16;10584526;28;20039;-71
2022/09/25 05:07:34;;;;;;;5.85;2.15;;;;;;;10.00;100.00;101653.97;10581400;28;20036;-71
2022/09/25 05:12:35;;;;;;;1.40;1.30;;;;;;;10.14;100.00;101644.28;10581796;28;20031;-71
2022/09/25 05:17:36;;;;;;;2.08;1.98;;;;;;;10.22;100.00;101638.84;10581764;28;20544;-71
2022/09/25 05:22:36;;;;;;;6.75;2.60;;;;;;;10.26;100.00;101632.06;10564976;28;20116;-71
2022/09/25 05:27:37;;;;;;;1.58;1.48;;;;;;;10.28;100.00;101630.03;10582396;28;20436;-71
2022/09/25 05:32:37;;;;;;;2.10;1.90;;;;;;;10.28;100.00;101626.50;10583209;28;20042;-71
2022/09/25 05:37:38;;;;;;;5.80;3.17;;;;;;;10.24;100.00;101625.94;10569214;28;20051;-71
2022/09/25 05:42:38;;;;;;;5.07;3.58;;;;;;;10.12;100.00;101635.50;10587176;28;20044;-71
2022/09/25 05:47:39;;;;;;;4.80;2.03;;;;;;;10.00;100.00;101638.59;10583481;28;20475;-71
2022/09/25 05:52:39;;;;;;;2.38;1.85;;;;;;;9.93;100.00;101626.78;10563693;28;20024;-71
2022/09/25 05:57:40;;;;;;;7.68;2.22;;;;;;;9.94;100.00;101638.44;10582916;28;20019;-72
2022/09/25 06:02:40;;;;;;;5.50;2.05;;;;;;;9.99;100.00;101647.72;10564587;28;20499;-71
2022/09/25 06:07:41;;;;;;;7.45;2.50;;;;;;;10.20;100.00;101646.28;10581641;28;20035;-71
2022/09/25 06:12:41;;;;;;;5.47;2.67;;;;;;;10.40;100.00;101660.22;10563020;28;20108;-70
2022/09/25 06:17:42;;;;;;;2.70;2.47;;;;;;;10.56;100.00;101662.00;10562863;28;20133;-70
2022/09/25 06:22:43;;;;;;;4.60;2.58;;;;;;;10.69;100.00;101659.56;10586344;28;20047;-69
2022/09/25 06:27:43;;;;;;;2.40;1.98;;;;;;;10.77;100.00;101659.50;10570957;28;20027;-70
2022/09/25 06:32:44;;;;;;;3.53;1.48;;;;;;;10.86;100.00;101671.97;10594478;28;20031;-71
2022/09/25 06:37:44;;;;;;;4.60;1.83;;;;;;;10.92;100.00;101663.13;10589288;28;20131;-70
2022/09/25 06:42:45;;;;;;;5.35;2.22;;;;;;;11.05;100.00;101661.66;10570196;28;20146;-70
2022/09/25 06:47:45;;;;;;;4.15;2.58;;;;;;;11.15;100.00;101657.69;10570650;28;20027;-71
2022/09/25 06:52:45;;;;;;;7.07;2.65;;;;;;;11.26;100.00;101653.66;10569183;28;20042;-70
2022/09/25 06:57:46;;;;;;;2.08;1.98;;;;;;;11.34;100.00;101642.75;10587371;28;20493;-71
2022/09/25 07:08:05;;;;;;;2.13;2.03;;;;;;;11.83;100.00;101644.94;10589137;28;20106;-73
2022/09/25 07:13:05;;;;;;;5.90;2.08;;;;;;;12.06;100.00;101647.59;10587136;28;20471;-71
2022/09/25 07:18:06;;;;;;;3.03;2.42;;;;;;;12.34;100.00;101641.44;10568538;28;20027;-72
2022/09/25 07:23:06;;;;;;;4.53;3.42;;;;;;;12.74;100.00;101650.03;10569900;28;20027;-71
2022/09/25 07:28:07;;;;;;;3.38;2.30;;;;;;;12.84;100.00;101657.88;10585959;28;20479;-71
2022/09/25 07:33:07;;;;;;;7.20;2.55;;;;;;;12.96;100.00;101656.34;10585469;28;20383;-72
2022/09/25 07:38:07;;;;;;;4.53;2.42;;;;;;;13.13;100.00;101655.00;10567285;28;20053;-72
2022/09/25 07:43:08;;;;;;;9.40;2.88;;;;;;;13.38;100.00;101654.63;10585927;28;20042;-72
2022/09/25 07:48:08;;;;;;;3.10;1.98;;;;;;;13.57;100.00;101653.94;10585866;28;20084;-72
2022/09/25 07:53:09;;;;;;;3.55;2.20;;;;;;;13.99;100.00;101654.81;10567649;28;20028;-72
2022/09/25 07:58:10;;;;;;;6.78;2.28;;;;;;;14.61;100.00;101656.56;10567007;28;20031;-73
2022/09/25 08:03:10;;;;;;;11.90;3.17;;;;;;;15.51;100.00;101654.31;10566889;28;20352;-74
2022/09/25 08:08:11;;;;;;;10.93;3.17;;;;;;;16.32;100.00;101653.03;10550322;28;20047;-73
2022/09/25 08:13:11;;;;;;;14.38;1.77;;;;;;;18.46;100.00;101658.34;10585479;28;20038;-74
2022/09/25 08:18:12;;;;;;;5.20;1.75;;;;;;;18.37;100.00;101649.59;10584596;28;20367;-75
2022/09/25 08:23:12;;;;;;;10.63;2.30;;;;;;;17.83;100.00;101660.34;10584333;28;20039;-75
2022/09/25 08:28:13;;;;;;;2.15;1.90;;;;;;;17.34;100.00;101670.28;10586474;28;20377;-74
2022/09/25 08:33:13;;;;;;;3.35;1.95;;;;;;;16.79;100.00;101659.13;10586527;28;20077;-74
2022/09/25 08:38:13;;;;;;;3.00;1.27;;;;;;;16.50;100.00;101671.47;10566635;28;20148;-75
2022/09/25 08:43:17;;;;;;;1.52;1.33;;;;;;;16.83;100.00;101657.63;10588662;28;20035;-75
2022/09/25 08:53:43;;;;;;;4.70;2.22;;;;;;;17.40;100.00;101644.75;10567459;28;20032;-75
2022/09/25 08:58:46;;;;;;;1.77;1.48;;;;;;;17.51;100.00;101648.66;10564885;28;20043;-75
2022/09/25 09:03:51;;;;;;;7.82;1.88;;;;;;;17.48;100.00;101656.47;10565274;28;20035;-75
2022/09/25 09:08:59;;;;;;;1.67;1.58;;;;;;;18.26;100.00;101648.50;10564831;28;20039;-75
2022/09/25 09:14:09;;;;;;;6.68;2.25;;;;;;;19.80;100.00;101653.28;10550194;28;20421;-74
2022/09/25 09:19:10;;;;;;;3.67;1.95;;;;;;;20.89;100.00;101649.72;10548849;28;20110;-75
2022/09/25 09:24:30;;;;;;;2.55;2.40;;;;;;;21.31;100.00;101641.91;10530825;28;20501;-75
2022/09/25 09:29:39;;;;;;;2.13;1.95;;;;;;;21.65;100.00;101643.81;10566142;28;20023;-75
2022/09/25 09:34:58;;;;;;;1.75;1.60;;;;;;;22.35;100.00;101650.53;10582826;28;20055;-75
2022/09/25 09:40:23;;;;;;;2.22;1.55;;;;;;;21.68;100.00;101654.31;10580185;28;20047;-75
2022/09/25 09:45:37;;;;;;;2.60;2.35;;;;;;;21.05;100.00;101653.56;10583248;28;20355;-75
2022/09/25 09:50:50;;;;;;;6.80;1.77;;;;;;;21.36;100.00;101652.19;10564019;28;20084;-75
2022/09/25 09:55:53;;;;;;;1.45;1.38;;;;;;;22.47;100.00;101640.19;10586014;28;20027;-75
2022/09/25 10:00:53;;;;;;;4.95;1.48;;;;;;;22.65;100.00;101644.50;10554671;28;20028;-75
2022/09/25 10:05:56;;;;;;;4.03;1.65;;;;;;;21.66;100.00;101643.53;10588076;28;20035;-75
2022/09/25 10:10:58;;;;;;;4.45;0.88;;;;;;;20.88;100.00;101643.38;10554012;28;20063;-75
2022/09/25 10:16:03;;;;;;;1.48;1.25;;;;;;;20.50;100.00;101644.00;10592601;28;20077;-76
2022/09/25 10:21:13;;;;;;;1.95;1.75;;;;;;;21.12;100.00;101634.94;10590347;28;20031;-74
2022/09/25 10:26:36;;;;;;;4.13;2.17;;;;;;;20.75;100.00;101624.41;10589177;28;20032;-76
2022/09/25 10:31:38;;;;;;;2.58;1.15;;;;;;;19.55;100.00;101634.25;10589007;28;20387;-75
2022/09/25 10:36:43;;;;;;;1.88;1.20;;;;;;;18.38;100.00;101636.72;10588711;28;20039;-75
2022/09/25 10:41:44;;;;;;;3.72;1.30;;;;;;;20.52;100.00;101630.88;10555148;28;20023;-75
2022/09/25 10:52:09;;;;;;;2.10;1.15;;;;;;;23.15;100.00;101626.78;10532255;28;20050;-75
2022/09/25 10:57:32;;;;;;;5.22;1.45;;;;;;;23.75;100.00;101614.50;10586992;28;20031;-75
2022/09/25 11:02:38;;;;;;;1.20;1.20;;;;;;;24.72;97.28;101612.06;10538687;28;20093;-75
2022/09/25 11:07:39;;;;;;;1.50;0.98;;;;;;;23.30;100.00;101613.09;10552503;28;20035;-75
2022/09/25 11:12:39;;;;;;;10.43;1.80;;;;;;;23.33;100.00;101607.03;10568871;28;20452;-75
2022/09/25 11:17:42;;;;;;;2.05;1.10;;;;;;;21.59;100.00;101590.53;10556311;28;20032;-73
2022/09/25 11:22:44;;;;;;;1.67;0.95;;;;;;;21.62;100.00;101583.66;10590739;28;20122;-74
2022/09/25 11:28:21;;;;;;;1.27;1.25;;;;;;;21.74;100.00;101598.19;10569458;28;20031;-74
2022/09/25 11:33:53;;;;;;;1.30;1.20;;;;;;;22.55;100.00;101589.22;10536689;28;20045;-75
2022/09/25 11:44:30;;;;;;;10.55;1.25;;;;;;;23.36;100.00;101573.34;10571274;28;20047;-74
2022/09/25 11:49:36;;;;;;;1.40;1.30;;;;;;;22.56;100.00;101579.81;10587274;28;20069;-76
2022/09/25 11:55:02;;;;;;;5.57;1.10;;;;;;;21.89;100.00;101575.47;10585462;28;20027;-74
2022/09/25 12:00:15;;;;;;;2.15;0.95;;;;;;;22.12;100.00;101577.13;10584734;28;20027;-74
2022/09/25 12:06:18;;;;;;;0.75;0.75;;;;;;;22.61;100.00;101575.19;10551644;28;20084;-74
2022/09/25 12:11:32;;;;;;;1.35;1.25;;;;;;;23.01;100.00;101575.84;10519010;28;20040;-74
2022/09/25 12:17:02;;;;;;;0.85;0.85;;;;;;;22.83;100.00;101558.53;10566325;28;20530;-74
2022/09/25 12:22:37;;;;;;;0.95;0.95;;;;;;;23.36;100.00;101559.50;10539969;28;20105;-75
2022/09/25 12:27:55;;;;;;;1.15;1.15;;;;;;;22.97;100.00;101553.44;10585058;28;20023;-73
2022/09/25 12:33:15;;;;;;;0.90;0.90;;;;;;;23.30;100.00;101549.53;10567580;28;20038;-73
2022/09/25 12:38:27;;;;;;;14.60;1.20;;;;;;;23.69;100.00;101553.91;10566861;28;20079;-73
2022/09/25 12:43:48;;;;;;;3.92;1.30;;;;;;;22.90;100.00;101536.22;10565325;28;20023;-74
2022/09/25 12:49:18;;;;;;;3.58;1.63;;;;;;;23.78;100.00;101525.47;10571553;28;20040;-74
2022/09/25 12:54:22;;;;;;;2.58;1.17;;;;;;;23.80;100.00;101520.50;10562858;28;20380;-69
2022/09/25 12:59:37;;;;;;;0.95;0.95;;;;;;;23.33;100.00;101523.28;10582918;28;20477;-70
2022/09/25 13:04:40;;;;;;;2.67;1.55;;;;;;;22.55;100.00;101511.91;10566330;28;20051;-70
2022/09/25 13:09:43;;;;;;;2.25;1.42;;;;;;;21.74;100.00;101521.00;10582094;28;20359;-70
2022/09/25 13:14:51;;;;;;;1.52;1.17;;;;;;;20.36;100.00;101521.63;10582541;28;20104;-70
2022/09/25 13:19:52;;;;;;;0.82;0.82;;;;;;;19.44;100.00;101522.50;10564583;28;20020;-69
2022/09/25 13:25:11;;;;;;;3.85;1.00;;;;;;;18.86;100.00;101517.84;10583103;28;20367;-70
2022/09/25 13:30:19;;;;;;;1.23;1.23;;;;;;;19.00;100.00;101516.56;10549359;28;20074;-70
2022/09/25 13:35:21;;;;;;;1.33;1.23;;;;;;;19.32;100.00;101518.94;10564553;28;20082;-70
2022/09/25 13:40:44;;;;;;;1.33;1.23;;;;;;;19.08;100.00;101513.47;10564687;28;20075;-69
2022/09/25 13:45:46;;;;;;;2.00;1.17;;;;;;;18.77;100.00;101507.25;10567927;28;20055;-69
2022/09/25 13:50:50;;;;;;;0.88;0.88;;;;;;;18.61;100.00;101501.59;10563530;28;20065;-69
2022/09/25 13:55:56;;;;;;;1.25;1.25;;;;;;;18.72;100.00;101495.28;10563071;28;20031;-71
2022/09/25 14:00:57;;;;;;;1.38;1.27;;;;;;;19.90;100.00;101488.56;10582443;28;20038;-72
2022/09/25 14:05:58;;;;;;;2.45;1.10;;;;;;;20.88;100.00;101478.19;10581379;28;20051;-72
2022/09/25 14:11:03;;;;;;;3.83;1.05;;;;;;;21.40;100.00;101479.75;10583959;28;20028;-71
2022/09/25 14:16:27;;;;;;;0.85;0.80;;;;;;;20.44;100.00;101472.50;10586761;28;20027;-71
2022/09/25 14:21:27;;;;;;;1.85;0.93;;;;;;;19.15;100.00;101477.66;10565948;28;20387;-72
2022/09/25 14:26:28;;;;;;;1.52;1.42;;;;;;;18.71;100.00;101469.75;10529736;28;20036;-71
2022/09/25 14:31:29;;;;;;;6.25;1.42;;;;;;;18.41;100.00;101472.59;10564352;28;20046;-71
2022/09/25 14:36:57;;;;;;;0.98;0.98;;;;;;;18.32;100.00;101471.25;10580223;28;20551;-71
2022/09/25 14:42:25;;;;;;;2.20;1.20;;;;;;;18.23;100.00;101470.75;10583286;28;20042;-68
2022/09/25 14:47:34;;;;;;;1.15;1.15;;;;;;;17.99;100.00;101469.00;10570367;28;20455;-70
2022/09/25 14:52:35;;;;;;;5.60;1.42;;;;;;;17.07;100.00;101472.66;10552424;28;20027;-69
2022/09/25 14:57:38;;;;;;;1.02;1.02;;;;;;;16.29;100.00;101462.16;10588011;28;20024;-69
2022/09/25 15:02:39;;;;;;;2.80;1.65;;;;;;;15.88;100.00;101466.22;10570647;28;20038;-69
2022/09/25 15:07:43;;;;;;;2.88;1.02;;;;;;;15.80;100.00;101464.59;10585752;28;20035;-69
2022/09/25 15:12:44;;;;;;;2.85;1.52;;;;;;;15.71;100.00;101460.44;10586260;28;20031;-70
2022/09/25 15:17:48;;;;;;;1.45;0.90;;;;;;;15.70;100.00;101458.75;10570448;28;20031;-70
2022/09/25 15:23:00;;;;;;;1.30;1.05;;;;;;;15.71;100.00;101457.69;10568776;28;20423;-69
2022/09/25 15:28:00;;;;;;;0.95;0.70;;;;;;;15.81;100.00;101454.50;10568503;28;20031;-69
2022/09/25 15:33:01;;;;;;;1.65;1.02;;;;;;;15.86;100.00;101451.09;10551778;28;20027;-69
2022/09/25 15:38:11;;;;;;;2.00;1.58;;;;;;;15.81;100.00;101449.03;10586647;28;20143;-69
2022/09/25 15:43:12;;;;;;;1.73;0.70;;;;;;;15.66;100.00;101440.25;10586425;28;20412;-69
2022/09/25 15:48:20;;;;;;;1.27;1.08;;;;;;;15.46;100.00;101443.91;10568251;28;20084;-70
2022/09/25 15:53:27;;;;;;;4.63;1.63;;;;;;;15.32;100.00;101447.78;10566902;28;20156;-69
2022/09/25 15:58:27;;;;;;;2.13;1.60;;;;;;;15.22;100.00;101436.44;10567934;28;20019;-69
2022/09/25 16:08:48;;;;;;;1.25;1.20;;;;;;;14.99;100.00;101426.88;10568958;28;20069;-69
2022/09/25 16:13:52;;;;;;;1.30;0.93;;;;;;;14.74;100.00;101413.09;10584203;28;20051;-69
2022/09/25 16:18:54;;;;;;;6.05;1.08;;;;;;;14.51;100.00;101408.06;10566636;28;20043;-69
2022/09/25 16:24:06;;;;;;;1.40;1.30;;;;;;;14.37;100.00;101409.94;10583804;28;20093;-69
2022/09/25 16:29:22;;;;;;;7.15;1.52;;;;;;;14.27;100.00;101431.34;10568092;28;20036;-69
2022/09/25 16:34:27;;;;;;;2.80;1.63;;;;;;;14.15;100.00;101431.09;10584494;28;20027;-69
2022/09/25 16:39:32;;;;;;;2.15;1.27;;;;;;;14.19;100.00;101421.47;10566901;28;20379;-69
2022/09/25 16:44:32;;;;;;;2.58;1.65;;;;;;;14.32;100.00;101419.78;10565400;28;20505;-69
2022/09/25 16:49:33;;;;;;;8.60;2.00;;;;;;;14.36;100.00;101418.34;10565661;28;20051;-69
2022/09/25 16:54:33;;;;;;;3.95;1.92;;;;;;;14.41;100.00;101402.19;10583270;28;20031;-69
2022/09/25 16:59:34;;;;;;;2.90;1.75;;;;;;;14.49;100.00;101414.78;10565764;28;20479;-69
2022/09/25 17:04:37;;;;;;;1.98;1.45;;;;;;;14.43;100.00;101414.56;10565672;28;20047;-70
2022/09/25 17:09:38;;;;;;;11.13;3.00;;;;;;;14.27;100.00;101411.44;10567874;28;20027;-70
2022/09/25 17:14:38;;;;;;;1.65;1.17;;;;;;;14.01;100.00;101402.19;10582762;28;20024;-69
2022/09/25 17:19:38;;;;;;;1.55;1.08;;;;;;;13.73;100.00;101407.78;10584303;28;20039;-69
2022/09/25 17:24:39;;;;;;;5.50;1.48;;;;;;;13.61;100.00;101396.66;10564575;28;20387;-69
2022/09/25 17:29:40;;;;;;;8.45;1.25;;;;;;;13.45;100.00;101387.00;10564003;28;20486;-69
2022/09/25 17:34:40;;;;;;;5.13;2.35;;;;;;;13.18;100.00;101377.88;10563988;28;20032;-69
2022/09/25 17:39:44;;;;;;;5.53;3.08;;;;;;;12.99;100.00;101386.78;10549371;28;20059;-70
2022/09/25 17:44:46;;;;;;;2.85;2.25;;;;;;;12.84;100.00;101388.78;10565274;28;20364;-69
2022/09/25 17:49:47;;;;;;;6.20;3.53;;;;;;;12.76;100.00;101378.91;10582447;28;20032;-69
2022/09/25 17:54:48;;;;;;;5.70;3.75;;;;;;;12.74;100.00;101370.13;10582217;28;20379;-69
2022/09/25 17:59:48;;;;;;;6.32;3.17;;;;;;;12.72;100.00;101373.03;10582146;28;20036;-69
2022/09/25 18:04:48;;;;;;;7.47;2.67;;;;;;;12.62;100.00;101364.41;10582833;28;20043;-69
2022/09/25 18:09:49;;;;;;;7.15;2.92;;;;;;;12.54;100.00;101364.59;10563458;28;20110;-70
2022/09/25 18:14:49;;;;;;;4.35;2.85;;;;;;;12.52;100.00;101355.78;10563204;28;20356;-69
2022/09/25 18:25:09;;;;;;;2.85;2.15;;;;;;;12.74;100.00;101353.81;10573370;28;20039;-69
2022/09/25 18:30:15;;;;;;;3.80;2.58;;;;;;;12.89;100.00;101342.81;10571088;28;20511;-70
2022/09/25 18:35:15;;;;;;;3.67;2.80;;;;;;;12.97;100.00;101340.75;10555533;28;20085;-70
2022/09/25 18:40:17;;;;;;;10.82;3.97;;;;;;;13.00;100.00;101337.63;10590951;28;20076;-69
2022/09/25 18:45:18;;;;;;;5.18;2.40;;;;;;;13.02;100.00;101326.56;10571762;28;20055;-69
2022/09/25 18:50:19;;;;;;;7.05;2.50;;;;;;;13.02;100.00;101312.97;10588430;28;20156;-70
2022/09/25 18:55:19;;;;;;;8.20;1.67;;;;;;;12.97;100.00;101304.59;10589209;28;20142;-69
2022/09/25 19:00:20;;;;;;;5.95;1.80;;;;;;;12.92;100.00;101291.63;10587859;28;20399;-69
2022/09/25 19:05:21;;;;;;;3.00;2.45;;;;;;;12.88;100.00;101294.94;10569749;28;20374;-69
2022/09/25 19:10:23;;;;;;;2.40;2.25;;;;;;;12.85;100.00;101284.47;10587480;28;20044;-70
2022/09/25 19:15:23;;;;;;;2.75;2.50;;;;;;;12.77;100.00;101286.31;10587910;28;20123;-69
2022/09/25 19:20:24;;;;;;;3.58;2.22;;;;;;;12.62;100.00;101274.75;10586745;28;20126;-69
2022/09/25 19:25:24;;;;;;;2.35;1.58;;;;;;;12.36;100.00;101259.16;10586787;28;20035;-70
2022/09/25 19:30:24;;;;;;;3.92;1.83;;;;;;;12.13;100.00;101258.63;10585561;28;20035;-70
2022/09/25 19:35:25;;;;;;;13.13;7.22;;;;;;;11.93;100.00;101258.44;10568419;28;20110;-69
2022/09/25 19:40:38;;;;;;;5.13;1.98;;;;;;;11.73;100.00;101242.84;10586249;28;20044;-69
2022/09/25 19:45:38;;;;;;;3.20;2.28;;;;;;;11.57;100.00;101243.13;10588029;28;20035;-69
2022/09/25 19:50:40;;;;;;;7.05;3.28;;;;;;;11.46;100.00;101247.22;10586356;28;20470;-69
2022/09/25 19:55:41;;;;;;;8.13;2.63;;;;;;;11.43;100.00;101247.59;10585851;28;20027;-69
2022/09/25 20:00:42;;;;;;;7.50;2.53;;;;;;;11.45;100.00;101239.25;10568450;28;20031;-69
2022/09/25 20:05:43;;;;;;;5.40;2.47;;;;;;;11.48;100.00;101233.44;10586284;28;20040;-70
2022/09/25 20:10:44;;;;;;;3.38;1.98;;;;;;;11.50;100.00;101234.94;10586172;28;20031;-69
2022/09/25 20:15:46;;;;;;;5.75;2.58;;;;;;;11.52;100.00;101219.31;10567840;28;20038;-69
2022/09/25 20:20:47;;;;;;;4.03;1.58;;;;;;;11.52;100.00;101213.03;10585666;28;20072;-69
2022/09/25 20:25:47;;;;;;;3.97;3.17;;;;;;;11.53;100.00;101209.28;10583599;28;20034;-69
2022/09/25 20:30:47;;;;;;;2.58;2.13;;;;;;;11.54;100.00;101203.66;10584296;28;20047;-69
2022/09/25 20:35:48;;;;;;;2.08;1.83;;;;;;;11.59;100.00;101203.09;10584347;28;20470;-69
2022/09/25 20:40:48;;;;;;;4.22;2.72;;;;;;;11.57;100.00;101197.00;10584820;28;20111;-70
2022/09/25 20:45:56;;;;;;;3.13;2.67;;;;;;;11.48;100.00;101196.31;10584667;28;20023;-69
2022/09/25 20:50:57;;;;;;;5.15;2.75;;;;;;;11.38;100.00;101199.34;10583001;28;20106;-69
2022/09/25 20:56:08;;;;;;;5.45;2.70;;;;;;;11.33;100.00;101185.56;10565024;28;20459;-69
2022/09/25 21:01:11;;;;;;;5.38;2.53;;;;;;;11.43;100.00;101190.66;10565045;28;20374;-70
2022/09/25 21:06:15;;;;;;;6.43;2.38;;;;;;;11.57;100.00;101186.16;10582203;28;20031;-69
2022/09/25 21:11:16;;;;;;;3.55;2.50;;;;;;;11.68;100.00;101185.63;10564732;28;20084;-69
2022/09/25 21:16:16;;;;;;;7.13;3.22;;;;;;;11.81;100.00;101174.03;10582469;28;20093;-69
2022/09/25 21:21:17;;;;;;;2.83;2.30;;;;;;;11.90;100.00;101161.16;10581764;28;20039;-69
2022/09/25 21:26:17;;;;;;;3.10;2.13;;;;;;;11.88;100.00;101158.66;10564187;28;20035;-69
2022/09/25 21:31:33;;;;;;;3.47;2.97;;;;;;;11.84;100.00;101152.78;10581645;28;20036;-69
2022/09/25 21:36:34;;;;;;;5.53;3.17;;;;;;;11.81;100.00;101136.88;10583033;28;20020;-69
2022/09/25 21:41:34;;;;;;;7.68;2.22;;;;;;;11.85;100.00;101129.19;10563992;28;20391;-69
2022/09/25 21:46:35;;;;;;;4.90;2.58;;;;;;;11.92;100.00;101123.81;10564210;28;20111;-69
2022/09/25 21:51:37;;;;;;;8.13;3.22;;;;;;;12.01;100.00;101117.19;10583596;28;20035;-70
2022/09/25 21:56:38;;;;;;;14.25;2.85;;;;;;;12.04;100.00;101098.59;10573015;28;20032;-69
2022/09/25 22:01:38;;;;;;;4.28;3.33;;;;;;;12.06;100.00;101088.41;10589650;28;20490;-69
2022/09/25 22:06:44;;;;;;;4.53;2.10;;;;;;;12.08;100.00;101082.75;10589934;28;20114;-69
2022/09/25 22:11:45;;;;;;;2.30;1.73;;;;;;;12.14;100.00;101078.38;10572483;28;20111;-69
2022/09/25 22:16:47;;;;;;;2.20;1.98;;;;;;;12.23;100.00;101069.84;10571251;28;20024;-69
2022/09/25 22:21:48;;;;;;;7.70;2.25;;;;;;;12.36;100.00;101070.94;10590687;28;20038;-69
2022/09/25 22:26:50;;;;;;;3.13;2.45;;;;;;;12.43;100.00;101052.78;10572167;28;20431;-69
2022/09/25 22:31:50;;;;;;;6.72;2.17;;;;;;;12.49;100.00;101041.09;10570725;28;20451;-69
2022/09/25 22:36:51;;;;;;;4.07;2.03;;;;;;;12.57;100.00;101046.31;10570492;28;20024;-69
2022/09/25 22:41:52;;;;;;;9.77;2.70;;;;;;;12.68;100.00;101028.56;10533072;28;20044;-69
2022/09/25 22:46:52;;;;;;;1.90;1.45;;;;;;;12.73;100.00;101023.34;10528511;28;20032;-69
2022/09/25 22:51:53;;;;;;;6.40;1.70;;;;;;;12.77;100.00;101020.00;10527967;28;20115;-69
2022/09/25 22:56:53;;;;;;;7.85;1.80;;;;;;;12.82;100.00;101019.38;10545924;28;20032;-69
2022/09/25 23:01:54;;;;;;;3.60;1.75;;;;;;;12.90;100.00;101010.19;10546706;28;20043;-70
2022/09/25 23:06:54;;;;;;;1.48;1.30;;;;;;;12.95;100.00;100991.34;10528082;28;20379;-69
2022/09/25 23:11:55;;;;;;;3.80;1.98;;;;;;;12.98;100.00;100983.59;10545271;28;20040;-69
2022/09/25 23:16:56;;;;;;;2.20;2.00;;;;;;;12.99;100.00;100966.25;10545589;28;20115;-69
2022/09/25 23:21:56;;;;;;;1.63;1.42;;;;;;;13.00;100.00;100951.59;10544802;28;20509;-69
2022/09/25 23:26:57;;;;;;;1.58;1.48;;;;;;;12.98;100.00;100950.16;10544682;28;20444;-70
2022/09/25 23:31:57;;;;;;;10.15;2.35;;;;;;;12.96;100.00;100933.22;10545666;28;20073;-69
2022/09/25 23:36:58;;;;;;;2.63;1.58;;;;;;;12.95;100.00;100921.50;10546409;28;20424;-69
2022/09/25 23:41:58;;;;;;;5.35;2.55;;;;;;;12.93;100.00;100925.50;10586464;28;20050;-69